sensor_id;sensor_type;location;lat;lon;timestamp;P1;durP1;ratioP1;P2;durP2;ratioP2
15506;SDS011;7855;52.210;5.982;2022-08-14T00:02:48;6;;;4;;
15506;SDS011;7855;52.210;5.982;2022-08-14T00:03:25;7;;;4;;
15506;SDS011;7855;52.210;5.982;2022-08-14T00:05:39;10;;;5;;
15506;SDS011;7855;52.210;5.982;2022-08-14T00:07:53;8;;;5;;
15506;SDS011;7855;52.210;5.982;2022-08-14T00:10:09;10;;;5;;
15506;SDS011;7855;52.210;5.982;2022-08-14T00:12:22;9;;;5;;
15506;SDS011;7855;52.210;5.982;2022-08-14T00:14:37;7;;;5;;
15506;SDS011;7855;52.210;5.982;2022-08-14T00:16:51;8;;;5;;
15506;SDS011;7855;52.210;5.982;2022-08-14T00:19:06;6;;;4;;
15506;SDS011;7855;52.210;5.982;2022-08-14T00:21:20;9;;;6;;
15506;SDS011;7855;52.210;5.982;2022-08-14T00:23:34;13;;;5;;
15506;SDS011;7855;52.210;5.982;2022-08-14T00:25:50;7;;;5;;
15506;SDS011;7855;52.210;5.982;2022-08-14T00:28:04;6;;;4;;
15506;SDS011;7855;52.210;5.982;2022-08-14T00:30:18;6;;;5;;
15506;SDS011;7855;52.210;5.982;2022-08-14T00:32:33;9;;;5;;
15506;SDS011;7855;52.210;5.982;2022-08-14T00:34:47;9;;;5;;
15506;SDS011;7855;52.210;5.982;2022-08-14T00:37:01;11;;;5;;
15506;SDS011;7855;52.210;5.982;2022-08-14T00:39:16;9;;;5;;
15506;SDS011;7855;52.210;5.982;2022-08-14T00:41:30;6;;;4;;
15506;SDS011;7855;52.210;5.982;2022-08-14T00:43:45;8;;;5;;
15506;SDS011;7855;52.210;5.982;2022-08-14T00:46:00;6;;;5;;
15506;SDS011;7855;52.210;5.982;2022-08-14T00:48:13;8;;;5;;
15506;SDS011;7855;52.210;5.982;2022-08-14T00:50:28;7;;;5;;
15506;SDS011;7855;52.210;5.982;2022-08-14T00:52:42;10;;;6;;
15506;SDS011;7855;52.210;5.982;2022-08-14T00:54:56;10;;;5;;
15506;SDS011;7855;52.210;5.982;2022-08-14T00:57:11;7;;;5;;
15506;SDS011;7855;52.210;5.982;2022-08-14T00:59:26;11;;;5;;
15506;SDS011;7855;52.210;5.982;2022-08-14T01:01:40;8;;;5;;
15506;SDS011;7855;52.210;5.982;2022-08-14T01:03:55;7;;;5;;
15506;SDS011;7855;52.210;5.982;2022-08-14T01:06:10;9;;;5;;
15506;SDS011;7855;52.210;5.982;2022-08-14T01:08:28;8;;;5;;
15506;SDS011;7855;52.210;5.982;2022-08-14T01:10:41;11;;;5;;
15506;SDS011;7855;52.210;5.982;2022-08-14T01:12:56;12;;;5;;
15506;SDS011;7855;52.210;5.982;2022-08-14T01:15:10;7;;;6;;
15506;SDS011;7855;52.210;5.982;2022-08-14T01:17:26;8;;;5;;
15506;SDS011;7855;52.210;5.982;2022-08-14T01:19:39;8;;;6;;
15506;SDS011;7855;52.210;5.982;2022-08-14T01:21:56;6;;;5;;
15506;SDS011;7855;52.210;5.982;2022-08-14T01:24:10;10;;;6;;
15506;SDS011;7855;52.210;5.982;2022-08-14T01:26:25;10;;;6;;
15506;SDS011;7855;52.210;5.982;2022-08-14T01:28:39;7;;;6;;
15506;SDS011;7855;52.210;5.982;2022-08-14T01:30:52;7;;;5;;
15506;SDS011;7855;52.210;5.982;2022-08-14T01:33:07;8;;;6;;
15506;SDS011;7855;52.210;5.982;2022-08-14T01:35:22;9;;;6;;
15506;SDS011;7855;52.210;5.982;2022-08-14T01:37:36;8;;;6;;
15506;SDS011;7855;52.210;5.982;2022-08-14T01:39:51;9;;;6;;
15506;SDS011;7855;52.210;5.982;2022-08-14T01:42:05;10;;;6;;
15506;SDS011;7855;52.210;5.982;2022-08-14T01:44:19;11;;;5;;
15506;SDS011;7855;52.210;5.982;2022-08-14T01:46:35;7;;;5;;
15506;SDS011;7855;52.210;5.982;2022-08-14T01:48:49;8;;;6;;
15506;SDS011;7855;52.210;5.982;2022-08-14T01:51:02;9;;;5;;
15506;SDS011;7855;52.210;5.982;2022-08-14T01:53:16;17;;;6;;
15506;SDS011;7855;52.210;5.982;2022-08-14T01:55:31;8;;;5;;
15506;SDS011;7855;52.210;5.982;2022-08-14T01:57:50;8;;;6;;
15506;SDS011;7855;52.210;5.982;2022-08-14T02:00:05;7;;;6;;
15506;SDS011;7855;52.210;5.982;2022-08-14T02:02:19;11;;;6;;
15506;SDS011;7855;52.210;5.982;2022-08-14T02:04:34;10;;;6;;
15506;SDS011;7855;52.210;5.982;2022-08-14T02:06:50;8;;;6;;
15506;SDS011;7855;52.210;5.982;2022-08-14T02:09:04;14;;;6;;
15506;SDS011;7855;52.210;5.982;2022-08-14T02:11:18;12;;;6;;
15506;SDS011;7855;52.210;5.982;2022-08-14T02:13:33;9;;;6;;
15506;SDS011;7855;52.210;5.982;2022-08-14T02:15:47;9;;;6;;
15506;SDS011;7855;52.210;5.982;2022-08-14T02:18:02;12;;;6;;
15506;SDS011;7855;52.210;5.982;2022-08-14T02:20:16;10;;;7;;
15506;SDS011;7855;52.210;5.982;2022-08-14T02:22:31;8;;;6;;
15506;SDS011;7855;52.210;5.982;2022-08-14T02:24:45;8;;;6;;
15506;SDS011;7855;52.210;5.982;2022-08-14T02:26:59;9;;;7;;
15506;SDS011;7855;52.210;5.982;2022-08-14T02:29:16;9;;;7;;
15506;SDS011;7855;52.210;5.982;2022-08-14T02:32:16;8;;;7;;
15506;SDS011;7855;52.210;5.982;2022-08-14T02:34:31;9;;;6;;
15506;SDS011;7855;52.210;5.982;2022-08-14T02:36:46;8;;;6;;
15506;SDS011;7855;52.210;5.982;2022-08-14T02:38:59;11;;;7;;
15506;SDS011;7855;52.210;5.982;2022-08-14T02:41:14;11;;;6;;
15506;SDS011;7855;52.210;5.982;2022-08-14T02:43:29;12;;;7;;
15506;SDS011;7855;52.210;5.982;2022-08-14T02:45:43;11;;;7;;
15506;SDS011;7855;52.210;5.982;2022-08-14T02:47:58;10;;;7;;
15506;SDS011;7855;52.210;5.982;2022-08-14T02:50:12;10;;;7;;
15506;SDS011;7855;52.210;5.982;2022-08-14T02:52:26;9;;;6;;
15506;SDS011;7855;52.210;5.982;2022-08-14T02:54:41;9;;;7;;
15506;SDS011;7855;52.210;5.982;2022-08-14T02:56:56;9;;;6;;
15506;SDS011;7855;52.210;5.982;2022-08-14T02:59:10;10;;;7;;
15506;SDS011;7855;52.210;5.982;2022-08-14T03:01:24;11;;;6;;
15506;SDS011;7855;52.210;5.982;2022-08-14T03:03:39;11;;;7;;
15506;SDS011;7855;52.210;5.982;2022-08-14T03:05:53;8;;;6;;
15506;SDS011;7855;52.210;5.982;2022-08-14T03:08:08;16;;;7;;
15506;SDS011;7855;52.210;5.982;2022-08-14T03:10:22;10;;;7;;
15506;SDS011;7855;52.210;5.982;2022-08-14T03:12:36;10;;;7;;
15506;SDS011;7855;52.210;5.982;2022-08-14T03:14:51;11;;;8;;
15506;SDS011;7855;52.210;5.982;2022-08-14T03:17:05;10;;;7;;
15506;SDS011;7855;52.210;5.982;2022-08-14T03:19:19;9;;;7;;
15506;SDS011;7855;52.210;5.982;2022-08-14T03:21:35;14;;;8;;
15506;SDS011;7855;52.210;5.982;2022-08-14T03:23:49;9;;;6;;
15506;SDS011;7855;52.210;5.982;2022-08-14T03:26:03;22;;;8;;
15506;SDS011;7855;52.210;5.982;2022-08-14T03:28:40;8;;;7;;
15506;SDS011;7855;52.210;5.982;2022-08-14T03:30:53;10;;;8;;
15506;SDS011;7855;52.210;5.982;2022-08-14T03:33:09;9;;;7;;
15506;SDS011;7855;52.210;5.982;2022-08-14T03:35:22;9;;;7;;
15506;SDS011;7855;52.210;5.982;2022-08-14T03:37:37;11;;;8;;
15506;SDS011;7855;52.210;5.982;2022-08-14T03:39:51;10;;;7;;
15506;SDS011;7855;52.210;5.982;2022-08-14T03:42:06;9;;;7;;
15506;SDS011;7855;52.210;5.982;2022-08-14T03:44:20;12;;;8;;
15506;SDS011;7855;52.210;5.982;2022-08-14T03:46:35;16;;;7;;
15506;SDS011;7855;52.210;5.982;2022-08-14T03:48:49;14;;;8;;
15506;SDS011;7855;52.210;5.982;2022-08-14T03:51:03;10;;;7;;
15506;SDS011;7855;52.210;5.982;2022-08-14T03:53:18;10;;;7;;
15506;SDS011;7855;52.210;5.982;2022-08-14T03:55:32;8;;;7;;
15506;SDS011;7855;52.210;5.982;2022-08-14T03:57:47;11;;;7;;
15506;SDS011;7855;52.210;5.982;2022-08-14T04:00:03;10;;;7;;
15506;SDS011;7855;52.210;5.982;2022-08-14T04:02:16;11;;;8;;
15506;SDS011;7855;52.210;5.982;2022-08-14T04:04:30;16;;;8;;
15506;SDS011;7855;52.210;5.982;2022-08-14T04:06:44;11;;;8;;
15506;SDS011;7855;52.210;5.982;2022-08-14T04:08:59;16;;;8;;
15506;SDS011;7855;52.210;5.982;2022-08-14T04:11:13;12;;;8;;
15506;SDS011;7855;52.210;5.982;2022-08-14T04:13:28;11;;;8;;
15506;SDS011;7855;52.210;5.982;2022-08-14T04:15:41;11;;;8;;
15506;SDS011;7855;52.210;5.982;2022-08-14T04:17:56;9;;;7;;
15506;SDS011;7855;52.210;5.982;2022-08-14T04:20:10;11;;;8;;
15506;SDS011;7855;52.210;5.982;2022-08-14T04:22:24;12;;;7;;
15506;SDS011;7855;52.210;5.982;2022-08-14T04:24:39;11;;;8;;
15506;SDS011;7855;52.210;5.982;2022-08-14T04:26:54;17;;;8;;
15506;SDS011;7855;52.210;5.982;2022-08-14T04:29:08;11;;;9;;
15506;SDS011;7855;52.210;5.982;2022-08-14T04:31:23;11;;;8;;
15506;SDS011;7855;52.210;5.982;2022-08-14T04:33:37;11;;;8;;
15506;SDS011;7855;52.210;5.982;2022-08-14T04:35:51;10;;;8;;
15506;SDS011;7855;52.210;5.982;2022-08-14T04:38:06;11;;;8;;
15506;SDS011;7855;52.210;5.982;2022-08-14T04:40:20;16;;;8;;
15506;SDS011;7855;52.210;5.982;2022-08-14T04:42:35;14;;;8;;
15506;SDS011;7855;52.210;5.982;2022-08-14T04:44:49;14;;;8;;
15506;SDS011;7855;52.210;5.982;2022-08-14T04:47:03;12;;;8;;
15506;SDS011;7855;52.210;5.982;2022-08-14T04:49:18;11;;;8;;
15506;SDS011;7855;52.210;5.982;2022-08-14T04:51:32;13;;;8;;
15506;SDS011;7855;52.210;5.982;2022-08-14T04:53:48;12;;;8;;
15506;SDS011;7855;52.210;5.982;2022-08-14T04:56:02;13;;;7;;
15506;SDS011;7855;52.210;5.982;2022-08-14T04:58:16;16;;;10;;
15506;SDS011;7855;52.210;5.982;2022-08-14T05:00:31;10;;;8;;
15506;SDS011;7855;52.210;5.982;2022-08-14T05:02:44;14;;;9;;
15506;SDS011;7855;52.210;5.982;2022-08-14T05:04:59;14;;;10;;
15506;SDS011;7855;52.210;5.982;2022-08-14T05:07:14;12;;;9;;
15506;SDS011;7855;52.210;5.982;2022-08-14T05:09:28;12;;;9;;
15506;SDS011;7855;52.210;5.982;2022-08-14T05:11:43;14;;;9;;
15506;SDS011;7855;52.210;5.982;2022-08-14T05:13:57;12;;;10;;
15506;SDS011;7855;52.210;5.982;2022-08-14T05:16:11;14;;;11;;
15506;SDS011;7855;52.210;5.982;2022-08-14T05:18:26;13;;;10;;
15506;SDS011;7855;52.210;5.982;2022-08-14T05:20:41;13;;;9;;
15506;SDS011;7855;52.210;5.982;2022-08-14T05:22:55;29;;;10;;
15506;SDS011;7855;52.210;5.982;2022-08-14T05:25:09;13;;;9;;
15506;SDS011;7855;52.210;5.982;2022-08-14T05:27:24;13;;;9;;
15506;SDS011;7855;52.210;5.982;2022-08-14T05:29:38;14;;;11;;
15506;SDS011;7855;52.210;5.982;2022-08-14T05:31:52;19;;;11;;
15506;SDS011;7855;52.210;5.982;2022-08-14T05:34:07;16;;;11;;
15506;SDS011;7855;52.210;5.982;2022-08-14T05:36:21;15;;;11;;
15506;SDS011;7855;52.210;5.982;2022-08-14T05:38:36;14;;;10;;
15506;SDS011;7855;52.210;5.982;2022-08-14T05:40:50;15;;;11;;
15506;SDS011;7855;52.210;5.982;2022-08-14T05:43:05;14;;;11;;
15506;SDS011;7855;52.210;5.982;2022-08-14T05:45:19;20;;;11;;
15506;SDS011;7855;52.210;5.982;2022-08-14T05:47:37;14;;;10;;
15506;SDS011;7855;52.210;5.982;2022-08-14T05:49:48;14;;;10;;
15506;SDS011;7855;52.210;5.982;2022-08-14T05:52:03;14;;;11;;
15506;SDS011;7855;52.210;5.982;2022-08-14T05:54:17;14;;;10;;
15506;SDS011;7855;52.210;5.982;2022-08-14T05:56:31;21;;;11;;
15506;SDS011;7855;52.210;5.982;2022-08-14T05:58:46;18;;;11;;
15506;SDS011;7855;52.210;5.982;2022-08-14T06:01:00;21;;;12;;
15506;SDS011;7855;52.210;5.982;2022-08-14T06:03:16;25;;;11;;
15506;SDS011;7855;52.210;5.982;2022-08-14T06:05:29;14;;;11;;
15506;SDS011;7855;52.210;5.982;2022-08-14T06:07:44;16;;;10;;
15506;SDS011;7855;52.210;5.982;2022-08-14T06:09:58;17;;;10;;
15506;SDS011;7855;52.210;5.982;2022-08-14T06:12:12;13;;;11;;
15506;SDS011;7855;52.210;5.982;2022-08-14T06:14:27;14;;;11;;
15506;SDS011;7855;52.210;5.982;2022-08-14T06:16:41;18;;;11;;
15506;SDS011;7855;52.210;5.982;2022-08-14T06:18:56;13;;;10;;
15506;SDS011;7855;52.210;5.982;2022-08-14T06:21:11;14;;;11;;
15506;SDS011;7855;52.210;5.982;2022-08-14T06:23:25;17;;;11;;
15506;SDS011;7855;52.210;5.982;2022-08-14T06:25:39;13;;;10;;
15506;SDS011;7855;52.210;5.982;2022-08-14T06:27:54;17;;;10;;
15506;SDS011;7855;52.210;5.982;2022-08-14T06:30:10;17;;;10;;
15506;SDS011;7855;52.210;5.982;2022-08-14T06:32:22;19;;;10;;
15506;SDS011;7855;52.210;5.982;2022-08-14T06:34:37;12;;;10;;
15506;SDS011;7855;52.210;5.982;2022-08-14T06:36:52;14;;;10;;
15506;SDS011;7855;52.210;5.982;2022-08-14T06:39:05;14;;;11;;
15506;SDS011;7855;52.210;5.982;2022-08-14T06:41:20;17;;;11;;
15506;SDS011;7855;52.210;5.982;2022-08-14T06:43:34;16;;;10;;
15506;SDS011;7855;52.210;5.982;2022-08-14T06:47:11;21;;;10;;
15506;SDS011;7855;52.210;5.982;2022-08-14T06:49:26;16;;;11;;
15506;SDS011;7855;52.210;5.982;2022-08-14T06:51:40;19;;;11;;
15506;SDS011;7855;52.210;5.982;2022-08-14T06:53:55;18;;;10;;
15506;SDS011;7855;52.210;5.982;2022-08-14T06:56:09;13;;;10;;
15506;SDS011;7855;52.210;5.982;2022-08-14T06:58:24;12;;;9;;
15506;SDS011;7855;52.210;5.982;2022-08-14T07:00:38;12;;;10;;
15506;SDS011;7855;52.210;5.982;2022-08-14T07:02:52;14;;;8;;
15506;SDS011;7855;52.210;5.982;2022-08-14T07:05:07;16;;;8;;
15506;SDS011;7855;52.210;5.982;2022-08-14T07:07:21;13;;;8;;
15506;SDS011;7855;52.210;5.982;2022-08-14T07:09:36;9;;;8;;
15506;SDS011;7855;52.210;5.982;2022-08-14T07:11:50;12;;;9;;
15506;SDS011;7855;52.210;5.982;2022-08-14T07:14:05;13;;;8;;
15506;SDS011;7855;52.210;5.982;2022-08-14T07:16:19;13;;;8;;
15506;SDS011;7855;52.210;5.982;2022-08-14T07:18:34;10;;;7;;
15506;SDS011;7855;52.210;5.982;2022-08-14T07:20:48;14;;;8;;
15506;SDS011;7855;52.210;5.982;2022-08-14T07:23:03;11;;;7;;
15506;SDS011;7855;52.210;5.982;2022-08-14T07:25:17;10;;;7;;
15506;SDS011;7855;52.210;5.982;2022-08-14T07:27:31;9;;;7;;
15506;SDS011;7855;52.210;5.982;2022-08-14T07:29:46;10;;;8;;
15506;SDS011;7855;52.210;5.982;2022-08-14T07:32:00;9;;;7;;
15506;SDS011;7855;52.210;5.982;2022-08-14T07:34:15;11;;;7;;
15506;SDS011;7855;52.210;5.982;2022-08-14T07:36:29;12;;;7;;
15506;SDS011;7855;52.210;5.982;2022-08-14T07:38:43;10;;;7;;
15506;SDS011;7855;52.210;5.982;2022-08-14T07:40:58;9;;;7;;
15506;SDS011;7855;52.210;5.982;2022-08-14T07:43:12;11;;;8;;
15506;SDS011;7855;52.210;5.982;2022-08-14T07:45:27;12;;;7;;
15506;SDS011;7855;52.210;5.982;2022-08-14T07:47:41;8;;;6;;
15506;SDS011;7855;52.210;5.982;2022-08-14T07:49:58;8;;;7;;
15506;SDS011;7855;52.210;5.982;2022-08-14T07:52:10;8;;;5;;
15506;SDS011;7855;52.210;5.982;2022-08-14T07:54:25;10;;;6;;
15506;SDS011;7855;52.210;5.982;2022-08-14T07:56:40;11;;;7;;
15506;SDS011;7855;52.210;5.982;2022-08-14T07:58:54;9;;;5;;
15506;SDS011;7855;52.210;5.982;2022-08-14T08:01:08;12;;;6;;
15506;SDS011;7855;52.210;5.982;2022-08-14T08:03:23;11;;;5;;
15506;SDS011;7855;52.210;5.982;2022-08-14T08:05:38;11;;;5;;
15506;SDS011;7855;52.210;5.982;2022-08-14T08:07:52;8;;;5;;
15506;SDS011;7855;52.210;5.982;2022-08-14T08:10:07;9;;;6;;
15506;SDS011;7855;52.210;5.982;2022-08-14T08:12:20;9;;;5;;
15506;SDS011;7855;52.210;5.982;2022-08-14T08:14:35;6;;;5;;
15506;SDS011;7855;52.210;5.982;2022-08-14T08:16:49;10;;;5;;
15506;SDS011;7855;52.210;5.982;2022-08-14T08:19:04;7;;;5;;
15506;SDS011;7855;52.210;5.982;2022-08-14T08:21:18;6;;;5;;
15506;SDS011;7855;52.210;5.982;2022-08-14T08:23:32;6;;;5;;
15506;SDS011;7855;52.210;5.982;2022-08-14T08:25:48;6;;;5;;
15506;SDS011;7855;52.210;5.982;2022-08-14T08:28:03;8;;;5;;
15506;SDS011;7855;52.210;5.982;2022-08-14T08:30:16;6;;;5;;
15506;SDS011;7855;52.210;5.982;2022-08-14T08:32:36;6;;;5;;
15506;SDS011;7855;52.210;5.982;2022-08-14T08:34:45;7;;;6;;
15506;SDS011;7855;52.210;5.982;2022-08-14T08:36:59;7;;;6;;
15506;SDS011;7855;52.210;5.982;2022-08-14T08:39:14;10;;;6;;
15506;SDS011;7855;52.210;5.982;2022-08-14T08:41:37;6;;;5;;
15506;SDS011;7855;52.210;5.982;2022-08-14T08:43:43;26;;;6;;
15506;SDS011;7855;52.210;5.982;2022-08-14T08:45:58;7;;;5;;
15506;SDS011;7855;52.210;5.982;2022-08-14T08:48:12;6;;;4;;
15506;SDS011;7855;52.210;5.982;2022-08-14T08:50:28;7;;;5;;
15506;SDS011;7855;52.210;5.982;2022-08-14T09:01:08;6;;;5;;
15506;SDS011;7855;52.210;5.982;2022-08-14T09:03:24;28;;;6;;
15506;SDS011;7855;52.210;5.982;2022-08-14T09:05:46;7;;;5;;
15506;SDS011;7855;52.210;5.982;2022-08-14T09:07:52;7;;;4;;
15506;SDS011;7855;52.210;5.982;2022-08-14T09:10:07;7;;;5;;
15506;SDS011;7855;52.210;5.982;2022-08-14T09:12:20;7;;;5;;
15506;SDS011;7855;52.210;5.982;2022-08-14T09:14:34;8;;;5;;
15506;SDS011;7855;52.210;5.982;2022-08-14T09:16:49;6;;;5;;
15506;SDS011;7855;52.210;5.982;2022-08-14T09:19:03;10;;;5;;
15506;SDS011;7855;52.210;5.982;2022-08-14T09:21:17;5;;;5;;
15506;SDS011;7855;52.210;5.982;2022-08-14T09:23:32;7;;;5;;
15506;SDS011;7855;52.210;5.982;2022-08-14T09:25:47;10;;;4;;
15506;SDS011;7855;52.210;5.982;2022-08-14T09:28:01;6;;;4;;
15506;SDS011;7855;52.210;5.982;2022-08-14T09:30:16;8;;;4;;
15506;SDS011;7855;52.210;5.982;2022-08-14T09:32:31;8;;;4;;
15506;SDS011;7855;52.210;5.982;2022-08-14T09:34:47;5;;;4;;
15506;SDS011;7855;52.210;5.982;2022-08-14T09:37:05;6;;;4;;
15506;SDS011;7855;52.210;5.982;2022-08-14T09:39:17;6;;;4;;
15506;SDS011;7855;52.210;5.982;2022-08-14T09:41:31;5;;;4;;
15506;SDS011;7855;52.210;5.982;2022-08-14T09:43:42;7;;;4;;
15506;SDS011;7855;52.210;5.982;2022-08-14T09:45:56;11;;;5;;
15506;SDS011;7855;52.210;5.982;2022-08-14T09:48:14;6;;;4;;
15506;SDS011;7855;52.210;5.982;2022-08-14T09:50:25;6;;;4;;
15506;SDS011;7855;52.210;5.982;2022-08-14T09:52:43;7;;;5;;
15506;SDS011;7855;52.210;5.982;2022-08-14T09:54:54;8;;;4;;
15506;SDS011;7855;52.210;5.982;2022-08-14T09:57:08;5;;;4;;
15506;SDS011;7855;52.210;5.982;2022-08-14T09:59:22;6;;;5;;
15506;SDS011;7855;52.210;5.982;2022-08-14T10:01:37;5;;;4;;
15506;SDS011;7855;52.210;5.982;2022-08-14T10:03:52;5;;;4;;
15506;SDS011;7855;52.210;5.982;2022-08-14T10:06:07;16;;;4;;
15506;SDS011;7855;52.210;5.982;2022-08-14T10:08:20;6;;;3;;
15506;SDS011;7855;52.210;5.982;2022-08-14T10:10:37;11;;;4;;
15506;SDS011;7855;52.210;5.982;2022-08-14T10:12:49;5;;;4;;
15506;SDS011;7855;52.210;5.982;2022-08-14T10:15:12;7;;;5;;
15506;SDS011;7855;52.210;5.982;2022-08-14T10:17:20;4;;;3;;
15506;SDS011;7855;52.210;5.982;2022-08-14T10:19:33;6;;;4;;
15506;SDS011;7855;52.210;5.982;2022-08-14T10:21:55;5;;;4;;
15506;SDS011;7855;52.210;5.982;2022-08-14T10:24:01;14;;;4;;
15506;SDS011;7855;52.210;5.982;2022-08-14T10:26:16;7;;;4;;
15506;SDS011;7855;52.210;5.982;2022-08-14T10:28:37;9;;;4;;
15506;SDS011;7855;52.210;5.982;2022-08-14T10:30:45;6;;;4;;
15506;SDS011;7855;52.210;5.982;2022-08-14T10:32:59;7;;;4;;
15506;SDS011;7855;52.210;5.982;2022-08-14T10:35:14;8;;;4;;
15506;SDS011;7855;52.210;5.982;2022-08-14T10:37:35;7;;;4;;
15506;SDS011;7855;52.210;5.982;2022-08-14T10:39:43;6;;;4;;
15506;SDS011;7855;52.210;5.982;2022-08-14T10:41:59;8;;;4;;
15506;SDS011;7855;52.210;5.982;2022-08-14T10:44:12;28;;;4;;
15506;SDS011;7855;52.210;5.982;2022-08-14T10:46:26;5;;;3;;
15506;SDS011;7855;52.210;5.982;2022-08-14T10:48:40;6;;;4;;
15506;SDS011;7855;52.210;5.982;2022-08-14T10:50:54;6;;;4;;
15506;SDS011;7855;52.210;5.982;2022-08-14T10:53:09;9;;;5;;
15506;SDS011;7855;52.210;5.982;2022-08-14T10:55:29;5;;;4;;
15506;SDS011;7855;52.210;5.982;2022-08-14T10:57:45;4;;;4;;
15506;SDS011;7855;52.210;5.982;2022-08-14T10:59:53;8;;;3;;
15506;SDS011;7855;52.210;5.982;2022-08-14T11:02:14;6;;;4;;
15506;SDS011;7855;52.210;5.982;2022-08-14T11:04:21;5;;;3;;
15506;SDS011;7855;52.210;5.982;2022-08-14T11:06:36;9;;;4;;
15506;SDS011;7855;52.210;5.982;2022-08-14T11:08:50;6;;;4;;
15506;SDS011;7855;52.210;5.982;2022-08-14T11:11:04;6;;;4;;
15506;SDS011;7855;52.210;5.982;2022-08-14T11:13:19;5;;;4;;
15506;SDS011;7855;52.210;5.982;2022-08-14T11:15:34;7;;;4;;
15506;SDS011;7855;52.210;5.982;2022-08-14T11:17:48;11;;;4;;
15506;SDS011;7855;52.210;5.982;2022-08-14T11:20:04;4;;;3;;
15506;SDS011;7855;52.210;5.982;2022-08-14T11:22:17;4;;;4;;
15506;SDS011;7855;52.210;5.982;2022-08-14T11:24:32;4;;;4;;
15506;SDS011;7855;52.210;5.982;2022-08-14T11:26:46;6;;;4;;
15506;SDS011;7855;52.210;5.982;2022-08-14T11:29:00;5;;;3;;
15506;SDS011;7855;52.210;5.982;2022-08-14T11:31:16;4;;;3;;
15506;SDS011;7855;52.210;5.982;2022-08-14T11:33:30;13;;;3;;
15506;SDS011;7855;52.210;5.982;2022-08-14T11:35:46;6;;;4;;
15506;SDS011;7855;52.210;5.982;2022-08-14T11:37:59;5;;;3;;
15506;SDS011;7855;52.210;5.982;2022-08-14T11:40:14;4;;;4;;
15506;SDS011;7855;52.210;5.982;2022-08-14T11:42:28;5;;;3;;
15506;SDS011;7855;52.210;5.982;2022-08-14T11:44:41;6;;;3;;
15506;SDS011;7855;52.210;5.982;2022-08-14T11:46:56;4;;;3;;
15506;SDS011;7855;52.210;5.982;2022-08-14T11:49:10;4;;;4;;
15506;SDS011;7855;52.210;5.982;2022-08-14T11:51:25;7;;;3;;
15506;SDS011;7855;52.210;5.982;2022-08-14T11:53:39;6;;;4;;
15506;SDS011;7855;52.210;5.982;2022-08-14T11:55:54;9;;;4;;
15506;SDS011;7855;52.210;5.982;2022-08-14T11:58:08;9;;;4;;
15506;SDS011;7855;52.210;5.982;2022-08-14T12:00:21;6;;;4;;
15506;SDS011;7855;52.210;5.982;2022-08-14T12:02:36;5;;;4;;
15506;SDS011;7855;52.210;5.982;2022-08-14T12:04:51;5;;;4;;
15506;SDS011;7855;52.210;5.982;2022-08-14T12:07:05;11;;;4;;
15506;SDS011;7855;52.210;5.982;2022-08-14T12:09:27;8;;;4;;
15506;SDS011;7855;52.210;5.982;2022-08-14T12:11:36;4;;;3;;
15506;SDS011;7855;52.210;5.982;2022-08-14T12:13:48;6;;;4;;
15506;SDS011;7855;52.210;5.982;2022-08-14T12:16:04;4;;;3;;
15506;SDS011;7855;52.210;5.982;2022-08-14T12:18:27;4;;;4;;
15506;SDS011;7855;52.210;5.982;2022-08-14T12:20:32;6;;;4;;
15506;SDS011;7855;52.210;5.982;2022-08-14T12:22:46;4;;;3;;
15506;SDS011;7855;52.210;5.982;2022-08-14T12:25:02;4;;;4;;
15506;SDS011;7855;52.210;5.982;2022-08-14T12:27:15;6;;;3;;
15506;SDS011;7855;52.210;5.982;2022-08-14T12:29:29;8;;;3;;
15506;SDS011;7855;52.210;5.982;2022-08-14T12:31:44;4;;;3;;
15506;SDS011;7855;52.210;5.982;2022-08-14T12:33:59;6;;;3;;
15506;SDS011;7855;52.210;5.982;2022-08-14T12:36:18;5;;;3;;
15506;SDS011;7855;52.210;5.982;2022-08-14T12:38:30;5;;;3;;
15506;SDS011;7855;52.210;5.982;2022-08-14T12:40:46;7;;;3;;
15506;SDS011;7855;52.210;5.982;2022-08-14T12:42:58;4;;;3;;
15506;SDS011;7855;52.210;5.982;2022-08-14T12:45:11;5;;;4;;
15506;SDS011;7855;52.210;5.982;2022-08-14T12:47:25;7;;;4;;
15506;SDS011;7855;52.210;5.982;2022-08-14T12:49:46;5;;;4;;
15506;SDS011;7855;52.210;5.982;2022-08-14T12:51:55;9;;;3;;
15506;SDS011;7855;52.210;5.982;2022-08-14T12:54:12;4;;;3;;
15506;SDS011;7855;52.210;5.982;2022-08-14T12:56:23;5;;;3;;
15506;SDS011;7855;52.210;5.982;2022-08-14T12:58:37;4;;;3;;
15506;SDS011;7855;52.210;5.982;2022-08-14T13:00:52;5;;;3;;
15506;SDS011;7855;52.210;5.982;2022-08-14T13:03:06;4;;;3;;
15506;SDS011;7855;52.210;5.982;2022-08-14T13:05:21;4;;;3;;
15506;SDS011;7855;52.210;5.982;2022-08-14T13:07:35;5;;;3;;
15506;SDS011;7855;52.210;5.982;2022-08-14T13:09:53;5;;;3;;
15506;SDS011;7855;52.210;5.982;2022-08-14T13:12:04;5;;;3;;
15506;SDS011;7855;52.210;5.982;2022-08-14T13:14:21;5;;;4;;
15506;SDS011;7855;52.210;5.982;2022-08-14T13:16:33;5;;;3;;
15506;SDS011;7855;52.210;5.982;2022-08-14T13:18:47;4;;;3;;
15506;SDS011;7855;52.210;5.982;2022-08-14T13:21:02;5;;;3;;
15506;SDS011;7855;52.210;5.982;2022-08-14T13:23:17;5;;;3;;
15506;SDS011;7855;52.210;5.982;2022-08-14T13:25:30;5;;;3;;
15506;SDS011;7855;52.210;5.982;2022-08-14T13:27:47;5;;;3;;
15506;SDS011;7855;52.210;5.982;2022-08-14T13:30:00;4;;;3;;
15506;SDS011;7855;52.210;5.982;2022-08-14T13:32:14;5;;;3;;
15506;SDS011;7855;52.210;5.982;2022-08-14T13:34:29;3;;;3;;
15506;SDS011;7855;52.210;5.982;2022-08-14T13:36:43;3;;;3;;
15506;SDS011;7855;52.210;5.982;2022-08-14T13:38:58;4;;;3;;
15506;SDS011;7855;52.210;5.982;2022-08-14T13:41:12;6;;;4;;
15506;SDS011;7855;52.210;5.982;2022-08-14T13:43:26;5;;;2;;
15506;SDS011;7855;52.210;5.982;2022-08-14T13:45:41;3;;;3;;
15506;SDS011;7855;52.210;5.982;2022-08-14T13:47:55;4;;;3;;
15506;SDS011;7855;52.210;5.982;2022-08-14T13:50:11;9;;;3;;
15506;SDS011;7855;52.210;5.982;2022-08-14T13:52:25;4;;;3;;
15506;SDS011;7855;52.210;5.982;2022-08-14T13:54:39;5;;;2;;
15506;SDS011;7855;52.210;5.982;2022-08-14T13:56:53;5;;;4;;
15506;SDS011;7855;52.210;5.982;2022-08-14T13:59:08;9;;;3;;
15506;SDS011;7855;52.210;5.982;2022-08-14T14:01:22;4;;;3;;
15506;SDS011;7855;52.210;5.982;2022-08-14T14:03:36;4;;;3;;
15506;SDS011;7855;52.210;5.982;2022-08-14T14:05:52;3;;;3;;
15506;SDS011;7855;52.210;5.982;2022-08-14T14:08:05;3;;;3;;
15506;SDS011;7855;52.210;5.982;2022-08-14T14:10:20;9;;;6;;
15506;SDS011;7855;52.210;5.982;2022-08-14T14:12:35;3;;;2;;
15506;SDS011;7855;52.210;5.982;2022-08-14T14:14:49;5;;;3;;
15506;SDS011;7855;52.210;5.982;2022-08-14T14:17:03;8;;;3;;
15506;SDS011;7855;52.210;5.982;2022-08-14T14:19:17;4;;;3;;
15506;SDS011;7855;52.210;5.982;2022-08-14T14:21:31;3;;;3;;
15506;SDS011;7855;52.210;5.982;2022-08-14T14:23:45;5;;;3;;
15506;SDS011;7855;52.210;5.982;2022-08-14T14:26:00;18;;;8;;
15506;SDS011;7855;52.210;5.982;2022-08-14T14:28:15;3;;;3;;
15506;SDS011;7855;52.210;5.982;2022-08-14T14:30:29;5;;;3;;
15506;SDS011;7855;52.210;5.982;2022-08-14T14:32:44;3;;;2;;
15506;SDS011;7855;52.210;5.982;2022-08-14T14:34:59;5;;;3;;
15506;SDS011;7855;52.210;5.982;2022-08-14T14:37:12;8;;;3;;
15506;SDS011;7855;52.210;5.982;2022-08-14T14:39:27;3;;;2;;
15506;SDS011;7855;52.210;5.982;2022-08-14T14:41:41;3;;;2;;
15506;SDS011;7855;52.210;5.982;2022-08-14T14:43:56;3;;;3;;
15506;SDS011;7855;52.210;5.982;2022-08-14T14:46:10;5;;;3;;
15506;SDS011;7855;52.210;5.982;2022-08-14T14:50:39;6;;;3;;
15506;SDS011;7855;52.210;5.982;2022-08-14T14:52:53;5;;;3;;
15506;SDS011;7855;52.210;5.982;2022-08-14T14:55:09;7;;;2;;
15506;SDS011;7855;52.210;5.982;2022-08-14T14:57:22;3;;;3;;
15506;SDS011;7855;52.210;5.982;2022-08-14T14:59:36;4;;;3;;
15506;SDS011;7855;52.210;5.982;2022-08-14T15:01:52;4;;;3;;
15506;SDS011;7855;52.210;5.982;2022-08-14T15:04:06;4;;;3;;
15506;SDS011;7855;52.210;5.982;2022-08-14T15:06:20;6;;;3;;
15506;SDS011;7855;52.210;5.982;2022-08-14T15:08:35;4;;;2;;
15506;SDS011;7855;52.210;5.982;2022-08-14T15:10:49;5;;;4;;